This is the latest recevied weather packets stored in our database for station/object KR4DFQ. If no packets are shown the sender has not sent any weather packets the latest 10 day(s).
| Time | Temp. | Humidity | Pressure | Rain* | Wind** | Luminosity | Snow |
|---|---|---|---|---|---|---|---|
| 1787867227 | 32.78° C | 54% | 1016 hPa | 0 mm | - | 217 W/m² | - |
| 1787866922 | 32.78° C | 53% | 1016.1 hPa | 0 mm | - | 148 W/m² | - |
| 1787866618 | 33.33° C | 53% | 1016.2 hPa | 0 mm | - | 273 W/m² | - |
| 1787866315 | 32.78° C | 53% | 1016.2 hPa | 0 mm | - | 306 W/m² | - |
| 1787866011 | 33.33° C | 52% | 1016.1 hPa | 0 mm | - | 124 W/m² | - |
| 1787865706 | 33.33° C | 54% | 1016.1 hPa | 0 mm | - | 352 W/m² | - |
| 1787865406 | 33.33° C | 54% | 1016.2 hPa | 0 mm | - | 376 W/m² | - |
| 1787865101 | 33.33° C | 54% | 1016.5 hPa | 0 mm | - | 431 W/m² | - |
| 1787864797 | 32.78° C | 55% | 1016.4 hPa | 0 mm | - | 458 W/m² | - |
| 1787864491 | 32.22° C | 58% | 1016.1 hPa | 0 mm | - | 464 W/m² | - |
| 1787864191 | 32.22° C | 58% | 1016.5 hPa | 0 mm | - | 476 W/m² | - |
| 1787863886 | 31.67° C | 59% | 1016.6 hPa | 0 mm | - | 496 W/m² | - |
| 1787863584 | 31.67° C | 59% | 1016.5 hPa | 0 mm | - | 524 W/m² | - |
| 1787863279 | 31.67° C | 59% | 1016.2 hPa | 0 mm | - | 533 W/m² | - |
| 1787862975 | 31.67° C | 61% | 1016.5 hPa | 0 mm | - | 586 W/m² | - |
| 1787862670 | 31.67° C | 60% | 1016.6 hPa | 0 mm | - | 572 W/m² | - |
| 1787862365 | 31.11° C | 62% | 1017.1 hPa | 0 mm | - | 585 W/m² | - |
| 1787862061 | 31.11° C | 63% | 1017.1 hPa | 0 mm | - | 613 W/m² | - |
| 1787861760 | 30.56° C | 64% | 1017.1 hPa | 0 mm | - | 696 W/m² | - |
| 1787861458 | 30° C | 66% | 1017.3 hPa | 0 mm | - | 825 W/m² | - |
| 1787861153 | 30.56° C | 63% | 1017.5 hPa | 0 mm | - | 317 W/m² | - |
| 1787860852 | 30.56° C | 61% | 1017.5 hPa | 0 mm | - | 457 W/m² | - |
| 1787860547 | 30.56° C | 63% | 1017.6 hPa | 0 mm | - | 849 W/m² | - |
| 1787860242 | 31.67° C | 58% | 1017.5 hPa | 0 mm | - | 236 W/m² | - |
| 1787859937 | 31.67° C | 56% | 1017.3 hPa | 0 mm | - | 193 W/m² | - |
* Rain latest hour (hover to see other rain measurements)
** Current wind speed in m/s (hover to see current wind gust speed)